createdAt,value
2022-10-23T00:00:07.095Z,97005.94
2022-10-23T00:02:33.606Z,97006.50
2022-10-23T00:04:59.998Z,97013.41
2022-10-23T00:07:26.509Z,97015.22
2022-10-23T00:09:53.089Z,97006.66
2022-10-23T00:12:19.514Z,97007.16
2022-10-23T00:14:45.873Z,96988.50
2022-10-23T00:17:12.666Z,96980.72
2022-10-23T00:19:39.027Z,96982.31
2022-10-23T00:22:05.388Z,96979.59
2022-10-23T00:24:31.792Z,96979.56
2022-10-23T00:26:58.172Z,96986.78
2022-10-23T00:29:25.631Z,96993.91
2022-10-23T00:31:52.008Z,96994.25
2022-10-23T00:34:19.368Z,96991.59
2022-10-23T00:36:45.742Z,96984.34
2022-10-23T00:39:12.115Z,96992.81
2022-10-23T00:41:38.485Z,97009.63
2022-10-23T00:44:07.713Z,97018.53
2022-10-23T00:46:36.356Z,97018.34
2022-10-23T00:49:04.574Z,97004.91
2022-10-23T00:51:40.174Z,96995.84
2022-10-23T00:54:24.398Z,97001.44
2022-10-23T00:56:54.420Z,97001.91
2022-10-23T00:59:20.792Z,97007.50
2022-10-23T01:01:48.243Z,97029.00
2022-10-23T01:04:14.846Z,97020.78
2022-10-23T01:07:10.396Z,97000.94
2022-10-23T01:09:59.823Z,96984.69
2022-10-23T01:12:38.791Z,96982.81
2022-10-23T01:15:20.442Z,96992.09
2022-10-23T01:17:56.654Z,96986.47
2022-10-23T01:20:28.889Z,97011.56
2022-10-23T01:23:12.468Z,97020.88
2022-10-23T01:26:15.953Z,97019.31
2022-10-23T01:28:53.386Z,97017.84
2022-10-23T01:31:27.864Z,97014.91
2022-10-23T01:34:08.912Z,97016.19
2022-10-23T01:36:39.556Z,97013.47
2022-10-23T01:39:14.898Z,97026.50
2022-10-23T01:41:47.419Z,97027.88
2022-10-23T01:44:40.200Z,97030.53
2022-10-23T01:47:11.051Z,97039.03
2022-10-23T01:49:40.826Z,97056.66
2022-10-23T01:52:10.818Z,97049.88
2022-10-23T01:54:40.914Z,97027.16
2022-10-23T01:57:15.719Z,97003.41
2022-10-23T01:59:49.813Z,97017.78
2022-10-23T02:02:18.736Z,97027.69
2022-10-23T02:04:56.876Z,97026.06
2022-10-23T02:07:23.787Z,97008.28
2022-10-23T02:09:50.392Z,96999.94
2022-10-23T02:12:52.159Z,97013.06
2022-10-23T02:15:41.307Z,97005.59
2022-10-23T02:18:32.644Z,97004.13
2022-10-23T02:21:05.586Z,96992.34
2022-10-23T02:23:39.948Z,96995.19
2022-10-23T02:26:23.877Z,97001.31
2022-10-23T02:28:57.828Z,96998.13
2022-10-23T02:31:24.587Z,97001.59
2022-10-23T02:33:50.971Z,97017.84
2022-10-23T02:36:18.861Z,97010.66
2022-10-23T02:38:45.743Z,97002.88
2022-10-23T02:41:24.218Z,96991.22
2022-10-23T02:44:04.106Z,96995.19
2022-10-23T02:46:33.094Z,97009.34
2022-10-23T02:49:12.395Z,97015.31
2022-10-23T02:51:44.760Z,97006.75
2022-10-23T02:54:39.432Z,96979.56
2022-10-23T02:57:27.549Z,96975.75
2022-10-23T03:00:13.777Z,96988.56
2022-10-23T03:02:45.314Z,96998.13
2022-10-23T03:05:18.314Z,97004.81
2022-10-23T03:07:46.034Z,97005.09
2022-10-23T03:10:12.866Z,97002.38
2022-10-23T03:12:39.574Z,96980.00
2022-10-23T03:15:07.382Z,96979.44
2022-10-23T03:17:33.780Z,96986.97
2022-10-23T03:20:00.258Z,96981.06
2022-10-23T03:22:26.602Z,96980.28
2022-10-23T03:24:52.957Z,96990.06
2022-10-23T03:27:19.519Z,96990.06
2022-10-23T03:29:45.902Z,96977.03
2022-10-23T03:32:12.324Z,96989.00
2022-10-23T03:34:38.695Z,96983.19
2022-10-23T03:37:05.410Z,96982.28
2022-10-23T03:39:31.926Z,96978.19
2022-10-23T03:41:58.280Z,96975.59
2022-10-23T03:44:24.694Z,96974.81
2022-10-23T03:46:51.192Z,96966.75
2022-10-23T03:49:17.559Z,96966.19
2022-10-23T03:51:44.830Z,96970.41
2022-10-23T03:54:11.263Z,96980.28
2022-10-23T03:56:37.686Z,96983.25
2022-10-23T03:59:04.663Z,96978.00
2022-10-23T04:01:31.179Z,96973.97
2022-10-23T04:03:57.629Z,96975.47
2022-10-23T04:06:23.996Z,96967.69
2022-10-23T04:08:50.470Z,96972.47
2022-10-23T04:11:16.832Z,96971.00
2022-10-23T04:13:43.219Z,96985.09
2022-10-23T04:16:09.594Z,96989.88
2022-10-23T04:18:35.969Z,96987.69
2022-10-23T04:21:02.336Z,96993.44
2022-10-23T04:23:28.701Z,97006.41
2022-10-23T04:25:58.523Z,97007.75
2022-10-23T04:28:25.707Z,96998.81
2022-10-23T04:30:52.355Z,96990.03
2022-10-23T04:33:18.967Z,96991.56
2022-10-23T04:35:45.544Z,96997.69
2022-10-23T04:38:11.910Z,96997.34
2022-10-23T04:40:38.294Z,96991.22
2022-10-23T04:43:04.869Z,96978.91
2022-10-23T04:45:31.219Z,96998.34
2022-10-23T04:47:57.565Z,97010.34
2022-10-23T04:50:24.070Z,97018.06
2022-10-23T04:52:54.654Z,97024.19
2022-10-23T04:55:21.656Z,97022.88
2022-10-23T04:57:48.462Z,97007.63
2022-10-23T05:00:16.129Z,97021.66
2022-10-23T05:02:42.726Z,97015.69
2022-10-23T05:05:10.138Z,97012.47
2022-10-23T05:07:37.439Z,97009.50
2022-10-23T05:10:05.338Z,97012.94
2022-10-23T05:12:31.791Z,97002.31
2022-10-23T05:14:58.225Z,96999.16
2022-10-23T05:17:32.339Z,97003.59
2022-10-23T05:20:01.833Z,96997.22
2022-10-23T05:22:32.377Z,97002.81
2022-10-23T05:24:58.876Z,97007.84
2022-10-23T05:27:25.252Z,97001.88
2022-10-23T05:29:51.637Z,97001.31
2022-10-23T05:32:18.093Z,96998.66
2022-10-23T05:34:44.786Z,96999.56
2022-10-23T05:37:14.183Z,97002.44
2022-10-23T05:39:40.695Z,96992.69
2022-10-23T05:42:07.203Z,96998.50
2022-10-23T05:44:33.692Z,96997.69
2022-10-23T05:47:00.046Z,96995.91
2022-10-23T05:49:26.783Z,96989.41
2022-10-23T05:51:53.371Z,96988.28
2022-10-23T05:54:19.746Z,96994.63
2022-10-23T05:56:46.133Z,97000.47
2022-10-23T05:59:12.534Z,97007.94
2022-10-23T06:01:39.138Z,97011.16
2022-10-23T06:04:05.698Z,97019.72
2022-10-23T06:06:32.071Z,97017.28
2022-10-23T06:08:58.518Z,97023.59
2022-10-23T06:11:25.002Z,97035.41
2022-10-23T06:13:51.476Z,97035.41
2022-10-23T06:16:24.536Z,97033.19
2022-10-23T06:18:50.912Z,97026.28
2022-10-23T06:21:17.726Z,97020.94
2022-10-23T06:23:45.588Z,97023.06
2022-10-23T06:26:14.690Z,97027.34
2022-10-23T06:28:41.840Z,97033.41
2022-10-23T06:31:10.953Z,97036.50
2022-10-23T06:33:37.389Z,97038.00
2022-10-23T06:36:05.408Z,97038.00
2022-10-23T06:38:37.332Z,97044.91
2022-10-23T06:41:04.438Z,97068.16
2022-10-23T06:43:30.805Z,97071.44
2022-10-23T06:46:00.856Z,97065.22
2022-10-23T06:48:27.207Z,97068.38
2022-10-23T06:50:53.561Z,97079.53
2022-10-23T06:53:19.915Z,97068.38
2022-10-23T06:55:48.068Z,97067.50
2022-10-23T06:58:16.540Z,97074.25
2022-10-23T07:00:44.413Z,97088.03
2022-10-23T07:03:10.802Z,97088.28
2022-10-23T07:05:37.140Z,97079.47
2022-10-23T07:08:06.926Z,97081.06
2022-10-23T07:10:34.516Z,97083.16
2022-10-23T07:13:01.247Z,97086.59
2022-10-23T07:15:28.178Z,97091.41
2022-10-23T07:17:55.461Z,97097.25
2022-10-23T07:20:22.247Z,97100.91
2022-10-23T07:22:54.287Z,97087.06
2022-10-23T07:25:21.569Z,97082.75
2022-10-23T07:27:48.152Z,97089.88
2022-10-23T07:30:14.939Z,97092.59
2022-10-23T07:32:41.455Z,97094.19
2022-10-23T07:35:09.174Z,97094.19
2022-10-23T07:37:35.649Z,97099.03
2022-10-23T07:40:02.478Z,97105.44
2022-10-23T07:42:28.853Z,97102.47
2022-10-23T07:44:55.237Z,97111.09
2022-10-23T07:47:21.687Z,97117.78
2022-10-23T07:49:48.330Z,97126.81
2022-10-23T07:52:15.384Z,97123.56
2022-10-23T07:54:41.890Z,97125.50
2022-10-23T07:57:11.887Z,97132.72
2022-10-23T07:59:38.388Z,97123.63
2022-10-23T08:02:04.995Z,97127.00
2022-10-23T08:04:31.339Z,97120.72
2022-10-23T08:06:57.736Z,97125.78
2022-10-23T08:09:24.179Z,97130.47
2022-10-23T08:11:50.561Z,97131.63
2022-10-23T08:14:16.962Z,97126.28
2022-10-23T08:16:43.327Z,97123.56
2022-10-23T08:19:10.324Z,97132.63
2022-10-23T08:21:36.687Z,97137.88
2022-10-23T08:24:03.469Z,97137.03
2022-10-23T08:26:30.356Z,97132.50
2022-10-23T08:28:59.604Z,97138.41
2022-10-23T08:31:26.178Z,97145.81
2022-10-23T08:33:52.621Z,97145.03
2022-10-23T08:36:27.647Z,97158.66
2022-10-23T08:38:56.271Z,97168.78
2022-10-23T08:41:31.046Z,97183.97
2022-10-23T08:44:16.999Z,97177.84
2022-10-23T08:46:47.910Z,97160.38
2022-10-23T08:49:29.610Z,97160.56
2022-10-23T08:51:58.892Z,97157.34
2022-10-23T08:54:40.811Z,97161.53
2022-10-23T08:57:14.722Z,97157.56
2022-10-23T08:59:51.825Z,97155.06
2022-10-23T09:02:33.739Z,97161.63
2022-10-23T09:05:00.416Z,97156.00
2022-10-23T09:08:00.944Z,97145.53
2022-10-23T09:10:58.244Z,97144.19
2022-10-23T09:13:39.577Z,97138.78
2022-10-23T09:16:30.250Z,97146.22
2022-10-23T09:18:57.866Z,97141.47
2022-10-23T09:21:28.892Z,97139.59
2022-10-23T09:23:55.959Z,97135.56
2022-10-23T09:26:23.224Z,97148.59
2022-10-23T09:29:02.218Z,97163.50
2022-10-23T09:31:28.633Z,97163.22
2022-10-23T09:34:04.271Z,97163.44
2022-10-23T09:36:30.774Z,97163.22
2022-10-23T09:38:59.415Z,97164.22
2022-10-23T09:41:28.823Z,97172.22
2022-10-23T09:44:08.494Z,97169.56
2022-10-23T09:46:43.627Z,97162.47
2022-10-23T09:49:27.326Z,97167.53
2022-10-23T09:52:04.433Z,97162.94
2022-10-23T09:54:38.125Z,97173.81
2022-10-23T09:57:32.004Z,97172.22
2022-10-23T10:00:16.195Z,97166.84
2022-10-23T10:02:54.457Z,97167.56
2022-10-23T10:05:41.691Z,97172.03
2022-10-23T10:08:22.620Z,97171.47
2022-10-23T10:11:02.528Z,97169.94
2022-10-23T10:13:37.934Z,97168.66
2022-10-23T10:16:27.575Z,97171.59
2022-10-23T10:19:03.078Z,97161.75
2022-10-23T10:21:58.136Z,97157.19
2022-10-23T10:24:34.984Z,97156.63
2022-10-23T10:27:20.017Z,97151.75
2022-10-23T10:30:03.282Z,97154.81
2022-10-23T10:32:40.672Z,97157.34
2022-10-23T10:35:18.923Z,97158.31
2022-10-23T10:38:07.107Z,97149.16
2022-10-23T10:41:00.634Z,97151.75
2022-10-23T10:43:37.350Z,97150.19
2022-10-23T10:46:11.253Z,97146.22
2022-10-23T10:48:45.779Z,97144.34
2022-10-23T10:51:20.417Z,97147.72
2022-10-23T10:54:00.049Z,97143.41
2022-10-23T10:56:29.729Z,97137.75
2022-10-23T10:59:01.737Z,97134.69
2022-10-23T11:01:35.018Z,97141.03
2022-10-23T11:04:12.841Z,97128.19
2022-10-23T11:06:44.502Z,97137.69
2022-10-23T11:09:27.419Z,97124.81
2022-10-23T11:11:54.646Z,97117.00
2022-10-23T11:14:23.495Z,97111.59
2022-10-23T11:16:52.258Z,97111.81
2022-10-23T11:19:27.790Z,97116.34
2022-10-23T11:22:13.299Z,97126.22
2022-10-23T11:24:57.320Z,97125.72
2022-10-23T11:27:47.555Z,97116.44
2022-10-23T11:30:28.547Z,97111.69
2022-10-23T11:33:28.096Z,97113.28
2022-10-23T11:36:06.931Z,97117.00
2022-10-23T11:38:35.355Z,97124.59
2022-10-23T11:41:05.502Z,97123.53
2022-10-23T11:43:35.445Z,97121.94
2022-10-23T11:46:29.375Z,97125.88
2022-10-23T11:48:56.905Z,97128.06
2022-10-23T11:51:29.504Z,97126.22
2022-10-23T11:54:11.186Z,97108.66
2022-10-23T11:57:14.303Z,97100.09
2022-10-23T11:59:49.723Z,97094.38
2022-10-23T12:02:38.604Z,97093.44
2022-10-23T12:05:42.234Z,97093.44
2022-10-23T12:08:22.239Z,97096.66
2022-10-23T12:10:55.814Z,97100.59
2022-10-23T12:13:32.639Z,97093.09
2022-10-23T12:16:00.955Z,97081.63
2022-10-23T12:18:28.164Z,97085.97
2022-10-23T12:20:59.623Z,97088.19
2022-10-23T12:23:35.146Z,97071.31
2022-10-23T12:26:04.531Z,97074.72
2022-10-23T12:28:50.626Z,97069.06
2022-10-23T12:31:29.010Z,97068.50
2022-10-23T12:34:21.011Z,97075.44
2022-10-23T12:37:06.609Z,97071.47
2022-10-23T12:39:39.135Z,97068.50
2022-10-23T12:42:21.018Z,97066.63
2022-10-23T12:44:58.541Z,97057.63
2022-10-23T12:47:25.168Z,97059.50
2022-10-23T12:49:52.342Z,97059.50
2022-10-23T12:52:21.009Z,97064.38
2022-10-23T12:54:50.697Z,97062.50
2022-10-23T12:57:23.496Z,97060.66
2022-10-23T12:59:53.545Z,97058.84
2022-10-23T13:02:20.002Z,97055.31
2022-10-23T13:04:49.034Z,97049.69
2022-10-23T13:07:18.974Z,97060.09
2022-10-23T13:09:46.204Z,97054.75
2022-10-23T13:12:24.596Z,97047.81
2022-10-23T13:15:19.388Z,97045.66
2022-10-23T13:17:58.114Z,97042.91
2022-10-23T13:20:37.902Z,97040.75
2022-10-23T13:23:24.190Z,97040.75
2022-10-23T13:26:29.366Z,97039.66
2022-10-23T13:28:56.685Z,97025.53
2022-10-23T13:31:30.215Z,97030.78
2022-10-23T13:33:59.467Z,97041.16
2022-10-23T13:36:27.618Z,97040.16
2022-10-23T13:39:04.079Z,97031.56
2022-10-23T13:41:38.337Z,97028.31
2022-10-23T13:44:05.392Z,97028.03
2022-10-23T13:46:32.650Z,97026.94
2022-10-23T13:48:59.101Z,97027.25
2022-10-23T13:51:29.179Z,97025.56
2022-10-23T13:53:56.876Z,97024.50
2022-10-23T13:56:27.707Z,97031.91
2022-10-23T13:58:54.521Z,97031.91
2022-10-23T14:01:27.787Z,97029.81
2022-10-23T14:03:55.997Z,97029.81
2022-10-23T14:06:22.430Z,97031.19
2022-10-23T14:08:48.831Z,97029.91
2022-10-23T14:11:17.587Z,97028.31
2022-10-23T14:13:44.831Z,97022.41
2022-10-23T14:16:16.263Z,97020.63
2022-10-23T14:18:43.156Z,97025.16
2022-10-23T14:21:12.582Z,97017.63
2022-10-23T14:23:39.153Z,97019.25
2022-10-23T14:26:07.404Z,97017.06
2022-10-23T14:28:34.067Z,97014.88
2022-10-23T14:31:08.982Z,97015.47
2022-10-23T14:33:35.636Z,97016.56
2022-10-23T14:36:02.074Z,97010.44
2022-10-23T14:38:28.641Z,97014.19
2022-10-23T14:40:55.112Z,97016.84
2022-10-23T14:43:25.030Z,97020.03
2022-10-23T14:45:51.900Z,97012.03
2022-10-23T14:48:18.459Z,97008.56
2022-10-23T14:50:48.887Z,97003.75
2022-10-23T14:53:16.361Z,97006.41
2022-10-23T14:55:42.736Z,97005.81
2022-10-23T14:58:09.154Z,97003.44
2022-10-23T15:00:35.528Z,97012.22
2022-10-23T15:03:01.923Z,97010.66
2022-10-23T15:05:28.356Z,97004.53
2022-10-23T15:07:55.871Z,97004.22
2022-10-23T15:10:22.280Z,96997.31
2022-10-23T15:12:49.047Z,96998.69
2022-10-23T15:15:15.572Z,97000.06
2022-10-23T15:17:42.331Z,97004.97
2022-10-23T15:20:09.259Z,97012.63
2022-10-23T15:22:35.752Z,97017.16
2022-10-23T15:25:02.156Z,97015.06
2022-10-23T15:27:28.662Z,97009.16
2022-10-23T15:29:55.084Z,97000.66
2022-10-23T15:32:21.473Z,97006.78
2022-10-23T15:34:49.557Z,97009.16
2022-10-23T15:37:15.950Z,97006.50
2022-10-23T15:39:42.491Z,96997.75
2022-10-23T15:42:10.010Z,96998.25
2022-10-23T15:44:36.846Z,96992.94
2022-10-23T15:47:03.569Z,96991.38
2022-10-23T15:49:30.973Z,96979.91
2022-10-23T15:51:57.504Z,96982.56
2022-10-23T15:54:26.037Z,96988.97
2022-10-23T15:56:54.996Z,96988.97
2022-10-23T15:59:24.462Z,96985.03
2022-10-23T16:01:51.824Z,96985.09
2022-10-23T16:04:18.552Z,96993.34
2022-10-23T16:06:45.306Z,96982.66
2022-10-23T16:09:11.666Z,96978.91
2022-10-23T16:11:39.638Z,96977.81
2022-10-23T16:14:07.022Z,96997.56
2022-10-23T16:16:34.197Z,96997.28
2022-10-23T16:19:02.421Z,96999.97
2022-10-23T16:21:31.983Z,96998.06
2022-10-23T16:24:00.704Z,96981.06
2022-10-23T16:26:29.762Z,96976.50
2022-10-23T16:28:58.952Z,96987.00
2022-10-23T16:31:26.244Z,96988.59
2022-10-23T16:33:53.546Z,96981.38
2022-10-23T16:36:21.079Z,96981.84
2022-10-23T16:38:47.510Z,96986.41
2022-10-23T16:41:13.996Z,96982.44
2022-10-23T16:43:40.378Z,96984.88
2022-10-23T16:46:12.714Z,96989.44
2022-10-23T16:48:39.997Z,96986.25
2022-10-23T16:51:08.406Z,96995.63
2022-10-23T16:53:35.367Z,96991.69
2022-10-23T16:56:05.135Z,96998.03
2022-10-23T16:58:31.947Z,96999.41
2022-10-23T17:01:07.793Z,97007.09
2022-10-23T17:03:37.356Z,97013.72
2022-10-23T17:06:08.722Z,97009.47
2022-10-23T17:08:36.968Z,97011.03
2022-10-23T17:11:25.182Z,97016.38
2022-10-23T17:13:59.352Z,97011.34
2022-10-23T17:16:47.043Z,97023.88
2022-10-23T17:19:39.744Z,97012.31
2022-10-23T17:22:01.859Z,97019.22
2022-10-23T17:24:28.394Z,97025.84
2022-10-23T17:26:54.952Z,97020.72
2022-10-23T17:29:21.830Z,97020.00
2022-10-23T17:31:49.901Z,97004.00
2022-10-23T17:34:20.238Z,97003.72
2022-10-23T17:36:52.125Z,97005.59
2022-10-23T17:39:21.630Z,97006.88
2022-10-23T17:41:48.254Z,97010.06
2022-10-23T17:44:14.931Z,96999.09
2022-10-23T17:46:41.357Z,97004.72
2022-10-23T17:49:07.808Z,96999.59
2022-10-23T17:51:35.178Z,97001.16
2022-10-23T17:54:05.091Z,97001.56
2022-10-23T17:56:33.327Z,96985.75
2022-10-23T17:59:03.499Z,96993.47
2022-10-23T18:01:31.202Z,96995.03
2022-10-23T18:04:01.077Z,97005.66
2022-10-23T18:06:32.036Z,97000.38
2022-10-23T18:08:59.705Z,97009.25
2022-10-23T18:11:30.062Z,97001.97
2022-10-23T18:13:57.433Z,97019.03
2022-10-23T18:16:23.933Z,97010.50
2022-10-23T18:18:53.504Z,97020.66
2022-10-23T18:21:22.595Z,97014.22
2022-10-23T18:23:49.359Z,97014.22
2022-10-23T18:26:23.860Z,97009.66
2022-10-23T18:28:52.550Z,97000.63
2022-10-23T18:31:20.581Z,96997.97
2022-10-23T18:33:47.448Z,96999.00
2022-10-23T18:36:18.700Z,96996.09
2022-10-23T18:38:45.313Z,96985.41
2022-10-23T18:41:11.901Z,96984.38
2022-10-23T18:43:43.752Z,96986.47
2022-10-23T18:46:11.994Z,96987.53
2022-10-23T18:48:38.504Z,96984.38
2022-10-23T18:51:05.187Z,96973.72
2022-10-23T18:53:31.580Z,96972.13
2022-10-23T18:55:58.127Z,96977.47
2022-10-23T18:58:25.179Z,96973.72
2022-10-23T19:00:51.709Z,96962.63
2022-10-23T19:03:18.086Z,96970.72
2022-10-23T19:05:46.571Z,96965.19
2022-10-23T19:08:13.618Z,96966.97
2022-10-23T19:10:42.273Z,96977.34
2022-10-23T19:13:08.674Z,96979.72
2022-10-23T19:15:37.264Z,96969.56
2022-10-23T19:18:06.782Z,96969.56
2022-10-23T19:20:33.812Z,96971.22
2022-10-23T19:23:02.168Z,96971.88
2022-10-23T19:25:33.048Z,96972.91
2022-10-23T19:28:01.633Z,96985.91
2022-10-23T19:30:28.314Z,96979.22
2022-10-23T19:32:54.902Z,96982.19
2022-10-23T19:35:22.153Z,96984.53
2022-10-23T19:37:49.326Z,96985.91
2022-10-23T19:40:15.704Z,96979.38
2022-10-23T19:42:44.139Z,96976.44
2022-10-23T19:45:13.440Z,96984.72
2022-10-23T19:47:41.474Z,96984.19
2022-10-23T19:50:09.423Z,96993.28
2022-10-23T19:52:36.039Z,96990.63
2022-10-23T19:55:03.317Z,96975.09
2022-10-23T19:57:33.717Z,96954.97
2022-10-23T20:00:01.095Z,96971.69
2022-10-23T20:02:28.243Z,96965.06
2022-10-23T20:04:54.891Z,96969.50
2022-10-23T20:07:21.359Z,96968.44
2022-10-23T20:09:47.840Z,96960.63
2022-10-23T20:12:14.492Z,96958.06
2022-10-23T20:14:40.940Z,96972.97
2022-10-23T20:17:07.338Z,96952.22
2022-10-23T20:19:34.819Z,96957.16
2022-10-23T20:22:01.428Z,96947.88
2022-10-23T20:24:27.801Z,96941.75
2022-10-23T20:26:55.597Z,96949.75
2022-10-23T20:29:23.113Z,96925.63
2022-10-23T20:31:49.501Z,96954.09
2022-10-23T20:34:15.953Z,96952.13
2022-10-23T20:36:46.713Z,96969.72
2022-10-23T20:39:20.402Z,96978.50
2022-10-23T20:41:47.289Z,96983.56
2022-10-23T20:46:47.144Z,96968.72
2022-10-23T20:49:14.713Z,96983.13
2022-10-23T20:51:41.566Z,96983.66
2022-10-23T20:54:08.206Z,96988.75
2022-10-23T20:56:37.408Z,96990.28
2022-10-23T20:59:15.061Z,96988.97
2022-10-23T21:01:50.238Z,96984.34
2022-10-23T21:04:22.408Z,96973.69
2022-10-23T21:07:11.051Z,96980.31
2022-10-23T21:09:38.743Z,96976.13
2022-10-23T21:12:06.573Z,96976.94
2022-10-23T21:14:33.469Z,96989.38
2022-10-23T21:16:59.900Z,96993.06
2022-10-23T21:19:26.302Z,96976.25
2022-10-23T21:21:52.795Z,96973.28
2022-10-23T21:24:19.210Z,96973.78
2022-10-23T21:26:46.069Z,96972.81
2022-10-23T21:29:18.618Z,96982.56
2022-10-23T21:31:51.610Z,96989.50
2022-10-23T21:34:17.951Z,96974.38
2022-10-23T21:37:07.543Z,96976.47
2022-10-23T21:39:33.262Z,96972.81
2022-10-23T21:42:00.211Z,96978.63
2022-10-23T21:44:26.594Z,96981.50
2022-10-23T21:46:53.013Z,96979.13
2022-10-23T21:49:19.460Z,96967.97
2022-10-23T21:51:47.181Z,96974.38
2022-10-23T21:54:16.950Z,96976.47
2022-10-23T21:56:49.090Z,96970.84
2022-10-23T21:59:18.986Z,96972.41
2022-10-23T22:01:47.631Z,96965.38
2022-10-23T22:04:17.082Z,96947.91
2022-10-23T22:06:44.566Z,96942.47
2022-10-23T22:09:17.314Z,96943.97
2022-10-23T22:11:43.683Z,96951.47
2022-10-23T22:14:10.094Z,96945.84
2022-10-23T22:16:36.586Z,96952.84
2022-10-23T22:19:03.578Z,96927.97
2022-10-23T22:21:30.651Z,96936.97
2022-10-23T22:23:59.343Z,96930.84
2022-10-23T22:26:29.866Z,96938.53
2022-10-23T22:28:59.614Z,96930.25
2022-10-23T22:31:28.345Z,96933.19
2022-10-23T22:33:55.875Z,96922.16
2022-10-23T22:36:23.157Z,96916.22
2022-10-23T22:38:49.807Z,96906.53
2022-10-23T22:41:17.188Z,96908.31
2022-10-23T22:43:43.675Z,96918.09
2022-10-23T22:46:12.749Z,96936.78
2022-10-23T22:48:40.159Z,96923.13
2022-10-23T22:51:09.043Z,96925.00
2022-10-23T22:53:36.135Z,96920.69
2022-10-23T22:56:06.872Z,96935.59
2022-10-23T22:58:33.497Z,96931.22
2022-10-23T23:01:11.614Z,96919.84
2022-10-23T23:03:38.108Z,96910.41
2022-10-23T23:06:06.395Z,96925.22
2022-10-23T23:08:33.735Z,96926.50
2022-10-23T23:11:00.683Z,96931.03
2022-10-23T23:13:27.219Z,96925.78
2022-10-23T23:15:54.342Z,96907.63
2022-10-23T23:18:21.220Z,96904.19
2022-10-23T23:20:48.057Z,96908.31
2022-10-23T23:23:14.749Z,96901.66
2022-10-23T23:25:43.242Z,96902.44
2022-10-23T23:28:12.271Z,96900.06
2022-10-23T23:30:40.537Z,96909.16
2022-10-23T23:33:07.715Z,96915.28
2022-10-23T23:35:34.099Z,96914.75
2022-10-23T23:38:00.481Z,96924.06
2022-10-23T23:40:26.849Z,96928.09
2022-10-23T23:42:53.236Z,96917.13
2022-10-23T23:45:19.591Z,96918.03
2022-10-23T23:47:46.152Z,96903.81
2022-10-23T23:50:12.974Z,96921.59
2022-10-23T23:52:39.338Z,96917.06
2022-10-23T23:55:06.045Z,96919.25
2022-10-23T23:57:32.486Z,96919.44
2022-10-23T23:59:59.806Z,96915.66
